Terminal Aerodrome Forecast
Issued by NWS

Current Version | Previous Version | Text Only | Print | Product List | Glossary On
Versions: 1 2 3 4 5 6 7 8 9 10 11 12 13
000
FTUS45 KTFX 181120
TAFBZN
TAF
KBZN 181120Z 1812/1918 VRB05KT P6SM FEW110 SCT250
     FM182000 24012KT P6SM SCT150 BKN250
     FM190100 20008KT P6SM SCT130 BKN250
     FM190400 16008KT P6SM FEW150 SCT250=

USA.gov is the U.S. government's official web portal to all federal, state and local government web resources and services.